createdAt,value
2022-10-14T00:02:26.586Z,27.50
2022-10-14T00:04:56.850Z,30.53
2022-10-14T00:07:26.659Z,26.97
2022-10-14T00:09:56.343Z,33.57
2022-10-14T00:12:26.080Z,30.03
2022-10-14T00:14:56.311Z,36.10
2022-10-14T00:17:28.942Z,34.37
2022-10-14T00:19:58.716Z,32.00
2022-10-14T00:22:28.855Z,40.60
2022-10-14T00:24:58.759Z,33.67
2022-10-14T00:27:28.524Z,39.03
2022-10-14T00:29:58.557Z,35.57
2022-10-14T00:32:30.866Z,34.30
2022-10-14T00:35:00.710Z,39.77
2022-10-14T00:37:33.164Z,34.40
2022-10-14T00:40:03.599Z,47.00
2022-10-14T00:42:35.598Z,44.67
2022-10-14T00:45:10.422Z,53.27
2022-10-14T00:47:43.307Z,43.80
2022-10-14T00:50:17.139Z,43.83
2022-10-14T00:52:47.811Z,39.10
2022-10-14T00:55:20.290Z,47.40
2022-10-14T00:57:50.081Z,50.27
2022-10-14T01:00:21.886Z,56.20
2022-10-14T01:02:54.277Z,47.93
2022-10-14T01:05:24.221Z,58.77
2022-10-14T01:08:06.230Z,50.57
2022-10-14T01:10:45.261Z,50.03
2022-10-14T01:13:26.625Z,45.37
2022-10-14T01:16:11.695Z,42.80
2022-10-14T01:18:59.595Z,49.17
2022-10-14T01:21:37.637Z,50.77
2022-10-14T01:24:35.838Z,49.20
2022-10-14T01:27:20.790Z,51.00
2022-10-14T01:30:24.177Z,49.70
2022-10-14T01:33:06.597Z,55.07
2022-10-14T01:35:51.582Z,54.17
2022-10-14T01:38:25.208Z,54.00
2022-10-14T01:40:59.755Z,60.00
2022-10-14T01:43:32.477Z,51.33
2022-10-14T01:46:08.267Z,56.17
2022-10-14T01:48:43.247Z,58.90
2022-10-14T01:51:19.082Z,58.50
2022-10-14T01:53:55.399Z,70.30
2022-10-14T01:56:27.756Z,57.47
2022-10-14T01:58:58.541Z,69.57
2022-10-14T02:01:30.984Z,62.13
2022-10-14T02:04:00.749Z,73.53
2022-10-14T02:06:36.491Z,63.90
2022-10-14T02:09:15.500Z,71.13
2022-10-14T02:11:58.801Z,65.67
2022-10-14T02:14:36.335Z,63.87
2022-10-14T02:17:14.173Z,70.73
2022-10-14T02:19:48.881Z,61.73
2022-10-14T02:22:27.627Z,61.87
2022-10-14T02:25:18.467Z,82.70
2022-10-14T02:27:51.787Z,67.53
2022-10-14T02:30:23.447Z,66.80
2022-10-14T02:33:03.837Z,68.80
2022-10-14T02:35:36.479Z,78.93
2022-10-14T02:38:08.433Z,74.07
2022-10-14T02:40:42.456Z,74.73
2022-10-14T02:43:13.825Z,71.73
2022-10-14T02:45:46.230Z,72.07
2022-10-14T02:48:18.705Z,71.43
2022-10-14T02:50:48.407Z,70.33
2022-10-14T02:53:19.511Z,75.17
2022-10-14T02:55:49.259Z,70.40
2022-10-14T02:58:19.070Z,69.87
2022-10-14T03:00:50.907Z,69.73
2022-10-14T03:03:24.495Z,63.53
2022-10-14T03:05:54.285Z,64.80
2022-10-14T03:08:24.645Z,65.80
2022-10-14T03:10:54.565Z,65.40
2022-10-14T03:13:25.499Z,78.33
2022-10-14T03:15:55.319Z,66.90
2022-10-14T03:18:27.669Z,75.90
2022-10-14T03:21:03.170Z,66.73
2022-10-14T03:23:39.105Z,64.80
2022-10-14T03:26:13.654Z,67.20
2022-10-14T03:28:46.316Z,69.50
2022-10-14T03:31:21.930Z,64.20
2022-10-14T03:34:32.353Z,62.67
2022-10-14T03:37:09.089Z,56.73
2022-10-14T03:39:47.478Z,62.73
2022-10-14T03:42:18.966Z,63.90
2022-10-14T03:44:50.936Z,63.87
2022-10-14T03:47:25.243Z,60.47
2022-10-14T03:49:57.568Z,62.20
2022-10-14T03:52:34.057Z,68.47
2022-10-14T03:55:10.243Z,69.87
2022-10-14T03:57:40.100Z,66.03
2022-10-14T04:00:12.749Z,74.70
2022-10-14T04:02:45.450Z,67.17
2022-10-14T04:05:40.270Z,73.47
2022-10-14T04:08:17.883Z,65.03
2022-10-14T04:10:56.616Z,67.47
2022-10-14T04:13:28.107Z,67.33
2022-10-14T04:15:57.841Z,76.07
2022-10-14T04:18:36.297Z,70.87
2022-10-14T04:21:13.017Z,70.40
2022-10-14T04:23:45.251Z,68.70
2022-10-14T04:26:19.051Z,70.10
2022-10-14T04:28:49.273Z,66.23
2022-10-14T04:31:33.293Z,69.27
2022-10-14T04:34:05.347Z,72.00
2022-10-14T04:36:42.864Z,60.40
2022-10-14T04:39:28.031Z,59.37
2022-10-14T04:41:58.456Z,59.43
2022-10-14T04:44:28.179Z,57.87
2022-10-14T04:46:58.006Z,54.67
2022-10-14T04:49:29.288Z,57.40
2022-10-14T04:52:14.427Z,52.47
2022-10-14T04:55:03.365Z,57.40
2022-10-14T04:57:40.402Z,52.13
2022-10-14T05:00:12.191Z,56.20
2022-10-14T05:03:02.887Z,59.60
2022-10-14T05:05:37.489Z,54.37
2022-10-14T05:08:11.531Z,59.60
2022-10-14T05:10:44.205Z,57.13
2022-10-14T05:13:20.778Z,50.97
2022-10-14T05:16:04.819Z,53.40
2022-10-14T05:18:36.703Z,52.43
2022-10-14T05:21:12.681Z,60.20
2022-10-14T05:24:11.107Z,51.93
2022-10-14T05:26:43.430Z,56.73
2022-10-14T05:29:16.100Z,54.33
2022-10-14T05:31:46.954Z,55.57
2022-10-14T05:34:27.937Z,54.60
2022-10-14T05:36:59.325Z,55.60
2022-10-14T05:39:35.057Z,64.83
2022-10-14T05:42:05.846Z,58.13
2022-10-14T05:44:39.050Z,55.30
2022-10-14T05:47:10.307Z,60.60
2022-10-14T05:49:40.473Z,58.13
2022-10-14T05:52:10.230Z,57.87
2022-10-14T05:54:42.628Z,64.57
2022-10-14T05:57:16.877Z,59.03
2022-10-14T05:59:46.671Z,61.53
2022-10-14T06:02:17.593Z,60.73
2022-10-14T06:04:47.471Z,65.87
2022-10-14T06:07:19.269Z,60.83
2022-10-14T06:09:54.296Z,63.37
2022-10-14T06:12:25.339Z,62.50
2022-10-14T06:14:55.540Z,55.97
2022-10-14T06:17:25.364Z,62.03
2022-10-14T06:19:56.061Z,59.40
2022-10-14T06:22:25.798Z,59.37
2022-10-14T06:25:01.821Z,61.27
2022-10-14T06:27:34.057Z,55.57
2022-10-14T06:30:03.852Z,56.57
2022-10-14T06:32:33.890Z,59.10
2022-10-14T06:35:03.952Z,60.90
2022-10-14T06:37:33.678Z,61.30
2022-10-14T06:40:06.504Z,61.77
2022-10-14T06:42:37.224Z,67.93
2022-10-14T06:45:09.318Z,61.50
2022-10-14T06:47:39.127Z,67.50
2022-10-14T06:50:10.101Z,67.03
2022-10-14T06:52:39.923Z,66.03
2022-10-14T06:55:12.678Z,74.87
2022-10-14T06:57:43.506Z,68.30
2022-10-14T07:00:14.230Z,73.40
2022-10-14T07:02:45.078Z,66.60
2022-10-14T07:05:17.339Z,73.90
2022-10-14T07:07:47.220Z,76.70
2022-10-14T07:10:19.783Z,79.07
2022-10-14T07:12:49.513Z,87.73
2022-10-14T07:15:19.498Z,92.43
2022-10-14T07:17:50.261Z,98.70
2022-10-14T07:20:20.229Z,104.87
2022-10-14T07:22:49.980Z,97.63
2022-10-14T07:25:22.412Z,105.30
2022-10-14T07:27:54.137Z,109.63
2022-10-14T07:30:24.133Z,96.90
2022-10-14T07:32:54.023Z,116.43
2022-10-14T07:35:25.707Z,117.70
2022-10-14T07:37:56.956Z,122.13
2022-10-14T07:40:29.830Z,140.60
2022-10-14T07:42:59.865Z,137.17
2022-10-14T07:45:35.210Z,148.83
2022-10-14T07:48:05.242Z,148.57
2022-10-14T07:50:35.026Z,145.33
2022-10-14T07:53:04.847Z,154.53
2022-10-14T07:55:37.225Z,149.20
2022-10-14T07:58:07.976Z,155.43
2022-10-14T08:00:37.832Z,140.10
2022-10-14T08:03:07.575Z,144.10
2022-10-14T08:05:38.878Z,135.37
2022-10-14T08:08:09.265Z,140.03
2022-10-14T08:10:42.239Z,128.20
2022-10-14T08:13:11.947Z,122.27
2022-10-14T08:15:43.742Z,116.60
2022-10-14T08:18:13.956Z,124.23
2022-10-14T08:20:43.734Z,140.60
2022-10-14T08:23:18.904Z,123.10
2022-10-14T08:25:53.403Z,109.13
2022-10-14T08:28:23.272Z,104.13
2022-10-14T08:30:54.081Z,106.50
2022-10-14T08:33:23.927Z,104.17
2022-10-14T08:35:54.826Z,99.57
2022-10-14T08:38:26.574Z,89.73
2022-10-14T08:41:10.341Z,84.37
2022-10-14T08:43:44.364Z,76.67
2022-10-14T08:46:22.995Z,70.30
2022-10-14T08:48:57.692Z,73.23
2022-10-14T08:51:27.937Z,57.73
2022-10-14T08:54:06.478Z,53.73
2022-10-14T08:56:40.584Z,50.47
2022-10-14T08:59:17.500Z,55.10
2022-10-14T09:01:54.577Z,57.27
2022-10-14T09:04:24.349Z,48.47
2022-10-14T09:06:56.677Z,53.10
2022-10-14T09:09:31.510Z,48.60
2022-10-14T09:12:07.761Z,49.00
2022-10-14T09:14:41.154Z,53.07
2022-10-14T09:17:17.315Z,41.97
2022-10-14T09:19:52.242Z,40.83
2022-10-14T09:22:22.488Z,40.03
2022-10-14T09:24:52.471Z,34.67
2022-10-14T09:27:25.830Z,35.50
2022-10-14T09:29:59.726Z,43.17
2022-10-14T09:32:32.867Z,33.83
2022-10-14T09:35:03.139Z,37.00
2022-10-14T09:37:35.370Z,36.17
2022-10-14T09:40:17.749Z,33.33
2022-10-14T09:42:53.867Z,31.23
2022-10-14T09:45:25.443Z,28.70
2022-10-14T09:47:58.277Z,32.97
2022-10-14T09:50:36.298Z,23.97
2022-10-14T09:53:11.032Z,12.73
2022-10-14T09:55:48.424Z,11.30
2022-10-14T09:58:25.013Z,13.17
2022-10-14T10:00:59.011Z,12.70
2022-10-14T10:03:32.692Z,14.20
2022-10-14T10:06:05.260Z,16.37
2022-10-14T10:08:35.832Z,11.33
2022-10-14T10:11:08.972Z,16.30
2022-10-14T10:13:45.324Z,19.63
2022-10-14T10:16:27.250Z,12.10
2022-10-14T10:19:01.265Z,11.40
2022-10-14T10:21:33.269Z,9.97
2022-10-14T10:24:06.087Z,6.93
2022-10-14T10:26:37.078Z,8.80
2022-10-14T10:29:11.663Z,7.60
2022-10-14T10:32:15.325Z,6.43
2022-10-14T10:35:00.439Z,5.77
2022-10-14T10:37:33.514Z,6.00
2022-10-14T10:40:33.115Z,6.80
2022-10-14T10:43:16.618Z,6.20
2022-10-14T10:46:00.263Z,6.67
2022-10-14T10:48:41.174Z,4.93
2022-10-14T10:51:15.622Z,8.10
2022-10-14T10:54:02.865Z,4.60
2022-10-14T10:56:38.918Z,4.50
2022-10-14T10:59:36.653Z,5.70
2022-10-14T11:02:38.225Z,5.90
2022-10-14T11:05:14.664Z,5.90
2022-10-14T11:08:08.772Z,11.57
2022-10-14T11:11:02.483Z,6.03
2022-10-14T11:13:45.403Z,10.23
2022-10-14T11:16:27.583Z,5.87
2022-10-14T11:19:11.017Z,5.20
2022-10-14T11:21:52.135Z,4.67
2022-10-14T11:24:30.749Z,8.13
2022-10-14T11:27:10.908Z,7.77
2022-10-14T11:30:14.829Z,5.00
2022-10-14T11:32:58.356Z,4.23
2022-10-14T11:35:40.767Z,4.97
2022-10-14T11:38:21.516Z,3.40
2022-10-14T11:40:59.975Z,6.27
2022-10-14T11:43:39.487Z,3.40
2022-10-14T11:46:12.806Z,5.97
2022-10-14T11:48:48.470Z,2.77
2022-10-14T11:51:26.333Z,2.30
2022-10-14T11:54:03.607Z,3.40
2022-10-14T11:56:45.860Z,2.53
2022-10-14T11:59:24.010Z,3.83
2022-10-14T12:02:01.442Z,1.83
2022-10-14T12:04:36.567Z,1.63
2022-10-14T12:07:15.895Z,1.70
2022-10-14T12:09:57.258Z,13.63
2022-10-14T12:12:31.980Z,2.70
2022-10-14T12:15:07.079Z,1.63
2022-10-14T12:17:41.509Z,8.10
2022-10-14T12:20:22.479Z,1.70
2022-10-14T12:22:55.882Z,2.30
2022-10-14T12:25:30.665Z,1.80
2022-10-14T12:28:00.914Z,1.87
2022-10-14T12:30:38.218Z,2.40
2022-10-14T12:33:10.319Z,1.70
2022-10-14T12:35:54.447Z,3.23
2022-10-14T12:38:29.552Z,2.00
2022-10-14T12:41:32.283Z,4.33
2022-10-14T12:44:04.133Z,2.13
2022-10-14T12:46:35.636Z,2.43
2022-10-14T12:49:05.529Z,2.30
2022-10-14T12:51:35.415Z,1.87
2022-10-14T12:54:17.782Z,3.90
2022-10-14T12:56:59.093Z,3.90
2022-10-14T12:59:33.078Z,1.40
2022-10-14T13:02:08.139Z,2.70
2022-10-14T13:04:40.018Z,3.03
2022-10-14T13:07:47.349Z,1.67
2022-10-14T13:10:48.547Z,1.93
2022-10-14T13:13:52.713Z,1.40
2022-10-14T13:17:13.414Z,1.43
2022-10-14T13:19:55.655Z,3.63
2022-10-14T13:22:42.311Z,1.73
2022-10-14T13:25:23.489Z,2.23
2022-10-14T13:28:05.433Z,7.90
2022-10-14T13:30:49.179Z,1.53
2022-10-14T13:33:25.437Z,1.20
2022-10-14T13:36:06.726Z,1.20
2022-10-14T13:38:40.733Z,1.57
2022-10-14T13:41:29.721Z,1.53
2022-10-14T13:44:02.639Z,2.93
2022-10-14T13:46:38.195Z,7.30
2022-10-14T13:49:20.742Z,1.67
2022-10-14T13:51:58.332Z,2.30
2022-10-14T13:54:32.111Z,2.00
2022-10-14T13:57:38.359Z,2.93
2022-10-14T14:02:53.359Z,5.07
2022-10-14T14:05:38.881Z,2.87
2022-10-14T14:11:18.188Z,1.90
2022-10-14T14:14:01.055Z,2.30
2022-10-14T14:16:36.560Z,2.30
2022-10-14T14:19:09.680Z,3.33
2022-10-14T14:21:42.125Z,2.43
2022-10-14T14:24:25.052Z,3.13
2022-10-14T14:26:59.193Z,3.70
2022-10-14T14:29:32.067Z,1.50
2022-10-14T14:32:07.935Z,10.57
2022-10-14T14:34:41.221Z,2.87
2022-10-14T14:37:40.307Z,4.30
2022-10-14T14:40:20.532Z,3.50
2022-10-14T14:42:56.054Z,1.20
2022-10-14T14:45:29.210Z,1.20
2022-10-14T14:48:04.671Z,2.40
2022-10-14T14:50:38.590Z,2.17
2022-10-14T14:53:13.635Z,1.73
2022-10-14T14:56:02.567Z,1.77
2022-10-14T14:58:37.138Z,3.30
2022-10-14T15:01:10.562Z,2.00
2022-10-14T15:04:11.946Z,3.87
2022-10-14T15:06:51.607Z,2.00
2022-10-14T15:09:26.763Z,2.17
2022-10-14T15:12:00.467Z,3.63
2022-10-14T15:14:33.002Z,3.37
2022-10-14T15:17:06.550Z,3.83
2022-10-14T15:19:38.770Z,3.10
2022-10-14T15:22:29.851Z,4.27
2022-10-14T15:25:13.078Z,2.30
2022-10-14T15:27:51.953Z,2.70
2022-10-14T15:30:35.038Z,8.43
2022-10-14T15:33:16.392Z,12.97
2022-10-14T15:35:47.707Z,3.67
2022-10-14T15:38:20.860Z,16.10
2022-10-14T15:40:52.665Z,3.30
2022-10-14T15:43:31.790Z,3.70
2022-10-14T15:46:15.296Z,3.50
2022-10-14T15:48:55.656Z,4.60
2022-10-14T15:51:26.244Z,3.90
2022-10-14T15:53:56.050Z,3.63
2022-10-14T15:56:26.260Z,3.93
2022-10-14T15:58:59.589Z,3.23
2022-10-14T16:01:29.574Z,4.93
2022-10-14T16:03:59.453Z,6.63
2022-10-14T16:06:31.062Z,6.13
2022-10-14T16:09:00.920Z,8.40
2022-10-14T16:11:32.639Z,4.40
2022-10-14T16:14:05.189Z,7.93
2022-10-14T16:16:38.974Z,5.40
2022-10-14T16:19:08.729Z,6.37
2022-10-14T16:21:39.043Z,7.23
2022-10-14T16:24:17.565Z,7.90
2022-10-14T16:26:48.959Z,6.13
2022-10-14T16:29:24.076Z,6.60
2022-10-14T16:31:55.420Z,10.47
2022-10-14T16:34:26.634Z,9.33
2022-10-14T16:36:57.378Z,8.50
2022-10-14T16:39:27.076Z,6.80
2022-10-14T16:41:57.061Z,8.97
2022-10-14T16:44:29.426Z,8.40
2022-10-14T16:47:13.426Z,9.33
2022-10-14T16:49:43.473Z,8.60
2022-10-14T16:52:14.587Z,7.80
2022-10-14T16:54:46.502Z,13.67
2022-10-14T16:57:16.670Z,7.77
2022-10-14T16:59:50.015Z,13.90
2022-10-14T17:02:21.488Z,8.70
2022-10-14T17:04:52.584Z,12.27
2022-10-14T17:07:22.253Z,12.67
2022-10-14T17:09:52.002Z,14.50
2022-10-14T17:12:22.969Z,9.07
2022-10-14T17:14:56.903Z,13.20
2022-10-14T17:17:27.745Z,14.77
2022-10-14T17:19:59.420Z,11.43
2022-10-14T17:22:29.846Z,11.93
2022-10-14T17:25:00.870Z,11.47
2022-10-14T17:27:31.591Z,10.40
2022-10-14T17:30:04.944Z,10.20
2022-10-14T17:32:34.665Z,13.63
2022-10-14T17:35:04.440Z,10.57
2022-10-14T17:37:34.135Z,10.23
2022-10-14T17:40:04.900Z,10.70
2022-10-14T17:42:35.591Z,14.40
2022-10-14T17:45:10.538Z,18.20
2022-10-14T17:47:41.355Z,10.17
2022-10-14T17:50:13.162Z,11.20
2022-10-14T17:52:43.889Z,10.80
2022-10-14T17:55:13.697Z,11.20
2022-10-14T17:57:44.423Z,14.63
2022-10-14T18:00:18.689Z,10.47
2022-10-14T18:02:48.348Z,9.27
2022-10-14T18:05:18.201Z,10.60
2022-10-14T18:07:48.964Z,11.40
2022-10-14T18:10:19.815Z,11.30
2022-10-14T18:12:50.481Z,10.67
2022-10-14T18:15:23.825Z,13.50
2022-10-14T18:17:53.476Z,13.33
2022-10-14T18:20:24.326Z,10.13
2022-10-14T18:22:54.359Z,10.93
2022-10-14T18:25:25.053Z,8.63
2022-10-14T18:27:55.783Z,8.70
2022-10-14T18:30:28.598Z,11.97
2022-10-14T18:32:59.497Z,17.80
2022-10-14T18:35:29.217Z,12.33
2022-10-14T18:37:59.955Z,10.63
2022-10-14T18:40:30.690Z,12.27
2022-10-14T18:43:04.130Z,10.40
2022-10-14T18:45:39.064Z,15.73
2022-10-14T18:48:11.652Z,16.33
2022-10-14T18:50:42.292Z,10.60
2022-10-14T18:53:12.954Z,10.70
2022-10-14T18:55:44.734Z,17.50
2022-10-14T18:58:14.459Z,10.80
2022-10-14T19:00:47.038Z,12.90
2022-10-14T19:03:17.121Z,13.77
2022-10-14T19:05:47.787Z,13.60
2022-10-14T19:08:17.484Z,14.63
2022-10-14T19:10:48.198Z,12.63
2022-10-14T19:13:18.953Z,13.87
2022-10-14T19:16:02.355Z,13.83
2022-10-14T19:18:32.251Z,12.50
2022-10-14T19:21:09.146Z,14.67
2022-10-14T19:23:39.803Z,13.33
2022-10-14T19:26:13.528Z,12.17
2022-10-14T19:28:44.846Z,13.27
2022-10-14T19:31:20.575Z,12.80
2022-10-14T19:33:51.090Z,11.77
2022-10-14T19:36:25.068Z,15.17
2022-10-14T19:38:57.619Z,12.97
2022-10-14T19:41:28.252Z,14.00
2022-10-14T19:43:59.952Z,12.30
2022-10-14T19:46:32.739Z,19.77
2022-10-14T19:49:04.944Z,14.70
2022-10-14T19:51:37.059Z,14.33
2022-10-14T19:54:08.200Z,19.67
2022-10-14T19:56:37.888Z,13.33
2022-10-14T19:59:07.819Z,14.47
2022-10-14T20:01:41.280Z,20.00
2022-10-14T20:04:11.204Z,210.23
2022-10-14T20:06:42.932Z,28.37
2022-10-14T20:09:15.211Z,14.10
2022-10-14T20:11:45.703Z,18.30
2022-10-14T20:14:18.499Z,16.60
2022-10-14T20:16:53.670Z,14.20
2022-10-14T20:19:27.792Z,14.67
2022-10-14T20:22:01.644Z,15.40
2022-10-14T20:24:31.481Z,13.67
2022-10-14T20:27:01.224Z,12.77
2022-10-14T20:29:31.036Z,13.50
2022-10-14T20:32:04.483Z,15.40
2022-10-14T20:34:35.361Z,12.27
2022-10-14T20:37:06.476Z,12.43
2022-10-14T20:39:36.369Z,11.97
2022-10-14T20:42:08.123Z,10.57
2022-10-14T20:44:39.009Z,11.57
2022-10-14T20:47:12.500Z,10.73
2022-10-14T20:49:42.912Z,9.90
2022-10-14T20:52:12.775Z,12.40
2022-10-14T20:54:43.670Z,13.03
2022-10-14T20:57:14.462Z,10.10
2022-10-14T20:59:44.241Z,11.10
2022-10-14T21:02:20.959Z,11.50
2022-10-14T21:04:53.090Z,10.27
2022-10-14T21:07:24.716Z,11.67
2022-10-14T21:09:55.776Z,13.30
2022-10-14T21:12:27.687Z,11.50
2022-10-14T21:14:58.475Z,12.17
2022-10-14T21:17:31.792Z,13.17
2022-10-14T21:20:02.620Z,14.60
2022-10-14T21:22:32.632Z,12.37
2022-10-14T21:25:03.476Z,14.87
2022-10-14T21:27:33.320Z,13.20
2022-10-14T21:30:04.112Z,17.30
2022-10-14T21:32:36.616Z,13.43
2022-10-14T21:35:08.908Z,15.20
2022-10-14T21:37:38.666Z,11.87
2022-10-14T21:40:10.270Z,14.67
2022-10-14T21:42:41.147Z,14.87
2022-10-14T21:45:11.508Z,15.37
2022-10-14T21:47:43.859Z,14.43
2022-10-14T21:50:14.578Z,13.13
2022-10-14T21:52:44.422Z,14.50
2022-10-14T21:55:14.216Z,13.90
2022-10-14T21:57:45.066Z,14.50
2022-10-14T22:00:16.088Z,17.03
2022-10-14T22:02:49.547Z,15.47
2022-10-14T22:05:19.314Z,16.80
2022-10-14T22:07:49.292Z,18.20
2022-10-14T22:10:31.672Z,19.77
2022-10-14T22:13:02.116Z,17.13
2022-10-14T22:15:31.830Z,17.80
2022-10-14T22:18:04.263Z,18.00
2022-10-14T22:20:34.169Z,20.70
2022-10-14T22:23:03.980Z,16.83
2022-10-14T22:25:35.816Z,22.03
2022-10-14T22:28:06.867Z,20.73
2022-10-14T22:30:37.459Z,23.83
2022-10-14T22:33:09.911Z,24.93
2022-10-14T22:35:39.723Z,23.10
2022-10-14T22:38:09.439Z,25.00
2022-10-14T22:40:39.307Z,23.53
2022-10-14T22:43:09.074Z,24.70
2022-10-14T22:45:39.052Z,21.43
2022-10-14T22:48:11.563Z,25.13
2022-10-14T22:50:41.261Z,30.30
2022-10-14T22:53:10.979Z,24.50
2022-10-14T22:55:40.682Z,24.63
2022-10-14T22:58:10.407Z,22.80
2022-10-14T23:00:40.185Z,23.40
2022-10-14T23:03:12.620Z,28.30
2022-10-14T23:05:42.404Z,26.20
2022-10-14T23:08:14.760Z,27.13
2022-10-14T23:10:45.093Z,31.77
2022-10-14T23:13:14.859Z,29.00
2022-10-14T23:15:44.574Z,27.77
2022-10-14T23:18:17.603Z,31.57
2022-10-14T23:20:47.327Z,27.10
2022-10-14T23:23:17.026Z,30.27
2022-10-14T23:25:47.614Z,32.57
2022-10-14T23:28:17.425Z,33.83
2022-10-14T23:30:47.216Z,30.10
2022-10-14T23:33:20.207Z,31.10
2022-10-14T23:35:49.942Z,32.33
2022-10-14T23:38:19.675Z,32.63
2022-10-14T23:40:49.373Z,32.53
2022-10-14T23:43:19.431Z,31.50
2022-10-14T23:45:49.173Z,29.50
2022-10-14T23:48:21.563Z,33.93
2022-10-14T23:50:51.289Z,28.07
2022-10-14T23:53:21.315Z,31.50
2022-10-14T23:55:51.742Z,32.67
2022-10-14T23:58:21.509Z,33.30
